Flight Track Log - Related Links

Times and Time Zones

All times are in EDT time to prevent confusion due to time zone crossing. See the SWA240 flight status page for this flight to view local times or setup timezone preferences in your user account.

Time Position Orientation Groundspeed Altitude Reporting Facility
EDT Latitude Longitude Course Direction KTS MPH feet Rate Location/Type
Sun 02:30:03 PM 42.9500 -83.8897 255° West 255 293 4,800  Level Cleveland Center
Sun 02:31:05 PM 42.9336 -83.9783 256° West 251 289 7,900 2,565 Climbing Cleveland Center
Sun 02:32:07 PM 42.9133 -84.0692 253° West 276 318 10,100 1,887 Climbing Cleveland Center
Sun 02:33:09 PM 42.8856 -84.2092 255° West 320 368 11,800 2,032 Climbing Cleveland Center
Sun 02:34:11 PM 42.8567 -84.3408 253° West 357 411 14,300 2,565 Climbing Cleveland Center
Sun 02:35:00 PM 42.8064 -84.4537 254° West  Level FlightAware Approximate
Sun 02:35:13 PM 42.8256 -84.4839 254° West 365 420 17,100  Level Cleveland Center
Sun 02:36:15 PM 42.7969 -84.6178 254° West 365 420 19,700 2,323 Climbing Cleveland Center
Sun 02:37:17 PM 42.7678 -84.7542 254° West 374 430 21,900 2,129 Climbing Cleveland Center
Sun 02:38:19 PM 42.7378 -84.8919 254° West 376 433 24,100 1,979 Climbing Cleveland Center
Sun 02:38:51 PM 42.7197 -84.9758 254° West 385 443 25,000 1,596 Climbing Chicago Center
Sun 02:39:53 PM 42.6881 -85.1194 253° West 393 452 26,600 1,403 Climbing Chicago Center
Sun 02:40:55 PM 42.6564 -85.2644 254° West 398 458 27,900 677 Climbing Chicago Center
Sun 02:41:57 PM 42.6233 -85.4094 253° West 399 459 28,000 48 Climbing Chicago Center
Sun 02:42:59 PM 42.5917 -85.5522 253° West 398 458 28,000  Level Chicago Center
Sun 02:44:02 PM 42.5533 -85.7192 253° West 390 449 28,000  Level Chicago Center
Sun 02:45:04 PM 42.5236 -85.8556 254° West 384 442 28,000  Level Chicago Center
Sun 02:46:06 PM 42.4922 -85.9906 253° West 379 436 28,000  Level Chicago Center
Sun 02:47:08 PM 42.4625 -86.1217 253° West 368 423 28,000  Level Chicago Center
Sun 02:48:10 PM 42.4461 -86.2581 261° West 365 420 28,000  Level Chicago Center
Sun 02:49:12 PM 42.4289 -86.3953 260° West 366 421 28,000  Level Chicago Center
Sun 02:50:14 PM 42.4114 -86.5292 260° West 364 419 28,000  Level Chicago Center
Sun 02:51:16 PM 42.3931 -86.6792 261° West 363 418 28,000  Level Chicago Center
Sun 02:52:18 PM 42.3767 -86.8128 261° West 362 417 28,000 144 Level Chicago Center
Sun 02:53:21 PM 42.3603 -86.9461 261° West 362 417 28,300 672 Climbing Chicago Center
Sun 02:54:23 PM 42.3431 -87.1067 262° West 361 415 29,400 823 Climbing Chicago Center
Sun 02:55:25 PM 42.3281 -87.2475 262° West 377 434 30,000 532 Climbing Chicago Center
Sun 02:56:27 PM 42.3131 -87.3900 262° West 382 440 30,500 726 Climbing Chicago Center
Sun 02:57:29 PM 42.2989 -87.5339 262° West 384 442 31,500 726 Climbing Chicago Center
Sun 02:58:31 PM 42.2828 -87.6772 261° West 386 444 32,000 238 Climbing Chicago Center
Sun 02:59:35 PM 42.2639 -87.8489 262° West 387 445 32,000  Level Chicago Center
Sun 03:00:37 PM 42.2492 -87.9906 262° West 386 444 32,000  Level Chicago Center
Sun 03:01:39 PM 42.2328 -88.1283 261° West 377 434 32,000  Level Chicago Center
Sun 03:02:41 PM 42.2181 -88.2636 262° West 372 428 32,000  Level Chicago Center
Sun 03:03:43 PM 42.2000 -88.4258 262° West 368 423 32,000  Level Chicago Center
Sun 03:04:45 PM 42.1839 -88.5589 261° West 366 421 32,000  Level Chicago Center
Sun 03:05:48 PM 42.1689 -88.6944 262° West 365 420 32,000  Level Chicago Center
Sun 03:06:50 PM 42.1525 -88.8311 261° West 366 421 32,000  Level Chicago Center
Sun 03:07:52 PM 42.1344 -88.9856 261° West 366 421 32,000  Level Chicago Center
Sun 03:08:54 PM 42.1178 -89.1206 261° West 366 421 32,000  Level Chicago Center
Sun 03:09:56 PM 42.1022 -89.2572 261° West 368 423 32,000  Level Chicago Center
Sun 03:10:58 PM 42.0853 -89.3922 260° West 368 423 32,000  Level Chicago Center
Sun 03:12:00 PM 42.0672 -89.5300 260° West 362 417 32,000  Level Chicago Center
Sun 03:13:02 PM 42.0503 -89.6631 260° West 363 418 32,000  Level Chicago Center
Sun 03:14:04 PM 42.0344 -89.7969 261° West 363 418 32,000  Level Chicago Center
Sun 03:15:06 PM 42.0144 -89.9447 260° West 364 419 32,000  Level Chicago Center
Sun 03:16:08 PM 41.9983 -90.0767 261° West 364 419 32,000  Level Chicago Center
Sun 03:17:10 PM 41.9806 -90.2106 260° West 365 420 32,000  Level Chicago Center
Sun 03:18:13 PM 41.9606 -90.3708 261° West 365 420 32,000  Level Chicago Center
Sun 03:19:15 PM 41.9414 -90.5061 259° West 369 425 32,000  Level Chicago Center
Sun 03:20:17 PM 41.9233 -90.6419 260° West 370 426 32,000  Level Chicago Center
Sun 03:21:19 PM 41.9033 -90.7797 259° West 375 432 32,000  Level Chicago Center
Sun 03:22:21 PM 41.8850 -90.9139 260° West 373 429 32,000  Level Chicago Center
Sun 03:23:23 PM 41.8628 -91.0775 260° West 373 429 32,000  Level Chicago Center
Sun 03:24:25 PM 41.8439 -91.2142 260° West 373 429 32,000  Level Chicago Center
Sun 03:25:27 PM 41.8239 -91.3503 259° West 374 430 32,000  Level Chicago Center
Sun 03:26:29 PM 41.8053 -91.4864 260° West 373 429 32,000  Level Chicago Center
Sun 03:27:31 PM 41.7847 -91.6231 259° West 374 430 32,000  Level Chicago Center
Sun 03:28:33 PM 41.7653 -91.7592 259° West 374 430 32,000  Level Chicago Center
Sun 03:29:35 PM 41.7425 -91.9211 259° West 374 430 32,000  Level Chicago Center
Sun 03:30:37 PM 41.7222 -92.0581 259° West 374 430 32,000  Level Chicago Center
Sun 03:31:39 PM 41.7017 -92.1919 258° West 373 429 32,000  Level Chicago Center
Sun 03:32:42 PM 41.6817 -92.3267 259° West 373 429 32,000  Level Chicago Center
Sun 03:33:44 PM 41.6617 -92.4603 259° West 371 427 32,000  Level Chicago Center
Sun 03:34:46 PM 41.6361 -92.6208 258° West 371 427 32,000  Level Chicago Center
Sun 03:35:41 PM 41.6178 -92.7503 259° West 370 426 32,000  Level Minneapolis Center
Sun 03:36:45 PM 41.5961 -92.8831 258° West 370 426 32,000  Level Minneapolis Center
Sun 03:37:47 PM 41.5750 -93.0161 258° West 370 426 32,000  Level Minneapolis Center
Sun 03:38:49 PM 41.5539 -93.1497 258° West 370 426 32,000  Level Minneapolis Center
Sun 03:39:51 PM 41.5281 -93.3083 258° West 370 426 32,000  Level Minneapolis Center
Sun 03:40:53 PM 41.5072 -93.4394 258° West 368 423 32,000  Level Minneapolis Center
Sun 03:41:55 PM 41.4864 -93.5711 258° West 368 423 32,000 48 Level Minneapolis Center
Sun 03:42:57 PM 41.4644 -93.7014 257° West 368 423 32,100 435 Climbing Minneapolis Center
Sun 03:43:59 PM 41.4431 -93.8336 258° West 368 423 32,900 968 Climbing Minneapolis Center
Sun 03:45:01 PM 41.4172 -93.9911 258° West 367 422 34,100 968 Climbing Minneapolis Center
Sun 03:46:03 PM 41.3944 -94.1222 257° West 367 422 34,900 677 Climbing Minneapolis Center
Sun 03:47:05 PM 41.3731 -94.2511 258° West 367 422 35,500 484 Climbing Minneapolis Center
Sun 03:48:07 PM 41.3506 -94.3811 257° West 364 419 35,900 242 Climbing Minneapolis Center
Sun 03:49:09 PM 41.3294 -94.5122 258° West 364 419 36,000 48 Climbing Minneapolis Center
Sun 03:50:11 PM 41.3053 -94.6444 256° West 364 419 36,000  Level Minneapolis Center
Sun 03:51:14 PM 41.2786 -94.8025 257° West 364 419 36,000  Level Minneapolis Center
Sun 03:52:16 PM 41.2556 -94.9356 257° West 365 420 36,000  Level Minneapolis Center
Sun 03:53:18 PM 41.2325 -95.0681 257° West 365 420 36,000  Level Minneapolis Center
Sun 03:54:20 PM 41.2092 -95.1994 257° West 365 420 36,000  Level Minneapolis Center
Sun 03:55:22 PM 41.1853 -95.3311 256° West 366 421 36,000  Level Minneapolis Center
Sun 03:56:24 PM 41.1606 -95.4631 256° West 366 421 36,000  Level Minneapolis Center
Sun 03:57:26 PM 41.1361 -95.5953 256° West 366 421 36,000  Level Minneapolis Center
Sun 03:58:28 PM 41.1064 -95.7539 256° West 366 421 36,000  Level Minneapolis Center
Sun 03:59:30 PM 41.0817 -95.8864 256° West 366 421 36,000  Level Minneapolis Center
Sun 04:00:33 PM 41.0575 -96.0194 256° West 366 421 36,000  Level Minneapolis Center
Sun 04:01:35 PM 41.0331 -96.1522 256° West 366 421 36,000  Level Minneapolis Center
Sun 04:02:37 PM 41.0094 -96.2828 257° West 366 421 36,000  Level Minneapolis Center
Sun 04:03:39 PM 40.9842 -96.4131 256° West 366 421 36,000  Level Minneapolis Center
Sun 04:04:41 PM 40.9600 -96.5439 256° West 366 421 36,000  Level Minneapolis Center
Sun 04:05:43 PM 40.9342 -96.6758 256° West 366 421 36,000  Level Minneapolis Center
Sun 04:06:45 PM 40.9039 -96.8322 256° West 366 421 36,000  Level Minneapolis Center
Sun 04:07:47 PM 40.8786 -96.9664 256° West 373 429 36,000  Level Minneapolis Center
Sun 04:08:49 PM 40.8522 -97.0978 255° West 373 429 36,000  Level Minneapolis Center
Sun 04:09:51 PM 40.8256 -97.2308 255° West 373 429 36,000  Level Minneapolis Center
Sun 04:10:53 PM 40.7961 -97.3808 256° West 373 429 36,000  Level Minneapolis Center
Sun 04:11:55 PM 40.7697 -97.5128 255° West 373 429 36,000  Level Minneapolis Center
Sun 04:12:57 PM 40.7428 -97.6447 255° West 373 429 36,000  Level Minneapolis Center
Sun 04:13:59 PM 40.7164 -97.7775 255° West 373 429 36,000  Level Minneapolis Center
Sun 04:15:01 PM 40.6892 -97.9097 255° West 373 429 36,000  Level Minneapolis Center
Sun 04:16:03 PM 40.6622 -98.0428 255° West 373 429 36,000  Level Minneapolis Center
Sun 04:17:06 PM 40.6286 -98.2042 255° West 374 430 36,000  Level Minneapolis Center
Sun 04:18:08 PM 40.6006 -98.3383 255° West 376 433 36,000  Level Minneapolis Center
Sun 04:19:10 PM 40.5722 -98.4711 254° West 376 433 36,000  Level Minneapolis Center
Sun 04:20:12 PM 40.5442 -98.6042 255° West 376 433 36,000  Level Minneapolis Center
Sun 04:21:14 PM 40.5167 -98.7383 255° West 376 433 36,000  Level Minneapolis Center
Sun 04:22:16 PM 40.4875 -98.8719 254° West 376 433 36,000  Level Minneapolis Center
Sun 04:23:18 PM 40.4592 -99.0053 254° West 376 433 36,000  Level Minneapolis Center
Sun 04:24:20 PM 40.4250 -99.1678 255° West 380 437 36,000  Level Minneapolis Center
Sun 04:24:58 PM 40.4069 -99.2481 254° West 380 437 36,000  Level Denver Center
Sun 04:26:00 PM 40.3778 -99.3831 254° West 382 440 36,000  Level Denver Center
Sun 04:27:02 PM 40.3469 -99.5194 254° West 386 444 36,000  Level Denver Center
Sun 04:28:04 PM 40.3181 -99.6536 254° West 384 442 36,000  Level Denver Center
Sun 04:29:06 PM 40.2872 -99.7889 253° West 383 441 36,000  Level Denver Center
Sun 04:30:08 PM 40.2536 -99.9403 254° West 384 442 36,000  Level Denver Center
Sun 04:31:10 PM 40.2244 -100.0697 254° West 386 444 36,000  Level Denver Center
Sun 04:32:13 PM 40.1911 -100.2203 254° West 386 444 36,000  Level Denver Center
Sun 04:33:15 PM 40.1606 -100.3486 253° West 385 443 36,000  Level Denver Center
Sun 04:34:17 PM 40.1258 -100.4986 253° West 386 444 36,000  Level Denver Center
Sun 04:35:19 PM 40.0958 -100.6292 253° West 387 445 36,000  Level Denver Center
Sun 04:36:21 PM 40.0594 -100.7839 253° West 393 452 36,000  Level Denver Center
Sun 04:37:23 PM 40.0292 -100.9156 253° West 394 453 36,000  Level Denver Center
Sun 04:38:25 PM 39.9933 -101.0708 253° West 397 457 36,000  Level Denver Center
Sun 04:39:27 PM 39.9617 -101.2011 252° West 397 457 36,000  Level Denver Center
Sun 04:40:29 PM 39.9297 -101.3342 253° West 397 457 36,000  Level Denver Center
Sun 04:41:31 PM 39.8931 -101.4892 253° West 398 458 36,000  Level Denver Center
Sun 04:42:33 PM 39.8606 -101.6214 252° West 399 459 36,000  Level Denver Center
Sun 04:43:35 PM 39.8225 -101.7758 252° West 400 460 36,000  Level Denver Center
Sun 04:44:37 PM 39.7911 -101.9089 253° West 400 460 36,000  Level Denver Center
Sun 04:45:40 PM 39.7528 -102.0631 252° West 401 461 36,000  Level Denver Center
Sun 04:46:42 PM 39.7203 -102.1958 252° West 402 463 36,000  Level Denver Center
Sun 04:47:44 PM 39.6814 -102.3500 252° West 402 463 36,000  Level Denver Center
Sun 04:48:46 PM 39.6486 -102.4819 252° West 402 463 36,000  Level Denver Center
Sun 04:49:48 PM 39.6136 -102.6194 252° West 402 463 36,000  Level Denver Center
Sun 04:50:50 PM 39.5786 -102.7583 252° West 404 465 36,000  Level Denver Center
Sun 04:51:52 PM 39.5364 -102.9244 252° West 404 465 36,000  Level Denver Center
Sun 04:52:54 PM 39.5008 -103.0650 252° West 407 468 36,000  Level Denver Center
Sun 04:53:56 PM 39.4647 -103.2050 252° West 408 470 36,000  Level Denver Center
Sun 04:54:58 PM 39.4278 -103.3456 251° West 411 473 36,000  Level Denver Center
Sun 04:56:00 PM 39.3917 -103.4867 252° West 412 474 36,000  Level Denver Center
Sun 04:57:02 PM 39.3547 -103.6269 251° West 412 474 36,000  Level Denver Center
Sun 04:58:04 PM 39.3100 -103.7956 251° West 412 474 36,000  Level Denver Center
Sun 04:59:06 PM 39.2719 -103.9358 251° West 412 474 36,000  Level Denver Center
Sun 05:00:08 PM 39.2344 -104.0767 251° West 414 476 36,000  Level Denver Center
Sun 05:01:10 PM 39.2094 -104.2206 257° West 410 472 36,000  Level Denver Center
Sun 05:02:12 PM 39.2092 -104.3697 270° West 413 475 36,000  Level Denver Center
Sun 05:03:14 PM 39.2058 -104.5186 268° West 413 475 36,000  Level Denver Center
Sun 05:04:16 PM 39.2019 -104.6664 268° West 412 474 36,000  Level Denver Center
Sun 05:05:18 PM 39.1942 -104.8142 266° West 412 474 36,000  Level Denver Center
Sun 05:06:20 PM 39.1881 -104.9914 268° West 412 474 36,000  Level Denver Center
Sun 05:07:22 PM 39.1819 -105.1383 267° West 412 474 36,000  Level Denver Center
Sun 05:08:24 PM 39.1769 -105.2861 268° West 412 474 36,000  Level Denver Center
Sun 05:09:26 PM 39.1736 -105.4336 268° West 412 474 36,000  Level Denver Center
Sun 05:10:28 PM 39.1744 -105.5808 270° West 412 474 36,000  Level Denver Center
Sun 05:11:29 PM 39.1800 -105.7303 273° West 413 475 36,000  Level Denver Center
Sun 05:12:31 PM 39.1522 -105.8711 256° West 417 480 36,000  Level Denver Center
Sun 05:13:33 PM 39.0861 -106.0300 242° Southwest 418 481 36,000  Level Denver Center
Sun 05:14:35 PM 39.0297 -106.1617 241° Southwest 418 481 36,000  Level Denver Center
Sun 05:15:37 PM 38.9725 -106.2958 241° Southwest 420 483 36,000  Level Denver Center
Sun 05:16:39 PM 38.9150 -106.4311 241° Southwest 424 488 36,000  Level Denver Center
Sun 05:17:41 PM 38.8575 -106.5658 241° Southwest 424 488 36,000  Level Denver Center
Sun 05:18:43 PM 38.7983 -106.7014 241° Southwest 428 493 36,000  Level Denver Center
Sun 05:19:44 PM 38.7408 -106.8372 242° Southwest 429 494 36,000  Level Denver Center
Sun 05:20:46 PM 38.6822 -106.9733 241° Southwest 432 497 36,000  Level Denver Center
Sun 05:21:48 PM 38.6233 -107.1081 241° Southwest 431 496 36,000  Level Denver Center
Sun 05:22:50 PM 38.5656 -107.2422 241° Southwest 428 493 36,000  Level Denver Center
Sun 05:23:52 PM 38.4953 -107.4053 241° Southwest 431 496 36,000  Level Denver Center
Sun 05:24:54 PM 38.4369 -107.5503 243° Southwest 432 497 36,000  Level Denver Center
Sun 05:25:56 PM 38.3992 -107.6939 251° West 428 493 36,000  Level Denver Center
Sun 05:26:57 PM 38.3633 -107.8400 253° West 434 499 36,000  Level Denver Center
Sun 05:27:59 PM 38.3269 -107.9858 252° West 434 499 36,000  Level Denver Center
Sun 05:29:01 PM 38.2850 -108.1511 252° West 438 504 36,000  Level Denver Center
Sun 05:30:03 PM 38.2492 -108.2928 252° West 438 504 36,000  Level Denver Center
Sun 05:31:04 PM 38.2114 -108.4331 251° West 439 505 36,000  Level Denver Center
Sun 05:32:06 PM 38.1672 -108.5992 251° West 440 506 36,000  Level Denver Center
Sun 05:33:08 PM 38.1294 -108.7419 251° West 444 511 36,000  Level Denver Center
Sun 05:34:10 PM 38.0850 -108.9094 251° West 446 513 36,000  Level Denver Center
Sun 05:35:12 PM 38.0483 -109.0511 252° West 445 512 36,000  Level Denver Center
Sun 05:36:14 PM 38.0036 -109.2164 251° West 445 512 36,000  Level Denver Center
Sun 05:37:15 PM 37.9656 -109.3597 251° West 445 512 36,000  Level Denver Center
Sun 05:38:17 PM 37.9200 -109.5269 251° West 449 517 36,000  Level Denver Center
Sun 05:39:19 PM 37.8808 -109.6708 251° West 449 517 36,000  Level Denver Center
Sun 05:40:21 PM 37.8356 -109.8372 251° West 449 517 36,000  Level Denver Center
Sun 05:41:23 PM 37.7978 -109.9819 252° West 449 517 36,000  Level Denver Center
Sun 05:42:25 PM 37.7653 -110.1281 254° West 450 518 36,000  Level Denver Center
Sun 05:43:27 PM 37.7197 -110.2972 251° West 454 522 36,000  Level Denver Center
Sun 05:44:28 PM 37.6786 -110.4383 250° West 453 521 36,000  Level Denver Center
Sun 05:45:30 PM 37.6369 -110.5944 251° West 446 513 36,000 -97 Level Denver Center
Sun 05:46:32 PM 37.5939 -110.7433 250° West 446 513 35,800 -387 Descending Denver Center
Sun 05:47:34 PM 37.5508 -110.8911 250° West 448 516 35,200 -581 Descending Denver Center
Sun 05:48:36 PM 37.5000 -111.0689 250° West 448 516 34,600 -532 Descending Denver Center
Sun 05:49:38 PM 37.4581 -111.2178 251° West 448 516 34,100 -435 Descending Denver Center
Sun 05:50:40 PM 37.4139 -111.3672 250° West 450 518 33,700 -629 Descending Denver Center
Sun 05:51:42 PM 37.3556 -111.5094 243° Southwest 453 521 32,800 -919 Descending Denver Center
Sun 05:52:44 PM 37.2969 -111.6508 243° Southwest 453 521 31,800 -919 Descending Denver Center
Sun 05:53:46 PM 37.2372 -111.7961 243° Southwest 461 531 30,900 -871 Descending Denver Center
Sun 05:54:48 PM 37.1783 -111.9428 243° Southwest 464 534 30,000 -435 Descending Denver Center
Sun 05:55:50 PM 37.1083 -112.1200 244° Southwest 467 537 30,000  Level Denver Center
Sun 05:56:52 PM 37.0500 -112.2664 244° Southwest 467 537 30,000  Level Denver Center
Sun 05:58:22 PM 36.9783 -112.4775 247° West 462 532 30,000  Level Los Angeles Center
Sun 05:59:24 PM 36.9314 -112.6278 249° West 463 533 30,000  Level Los Angeles Center
Sun 06:00:26 PM 36.8847 -112.7786 249° West 463 533 30,000 -384 Level Los Angeles Center
Sun 06:01:29 PM 36.8372 -112.9608 252° West 462 532 29,200 -774 Descending Los Angeles Center
Sun 06:02:30 PM 36.8022 -113.1122 254° West 455 524 28,400 -683 Descending Los Angeles Center
Sun 06:03:32 PM 36.7644 -113.2672 253° West 463 533 27,800 -532 Descending Los Angeles Center
Sun 06:04:34 PM 36.7169 -113.4144 248° West 458 527 27,300 -629 Descending Los Angeles Center
Sun 06:05:36 PM 36.6706 -113.5611 249° West 454 522 26,500 -919 Descending Los Angeles Center
Sun 06:06:38 PM 36.6253 -113.7086 249° West 456 525 25,400 -2,468 Descending Los Angeles Center
Sun 06:07:40 PM 36.5822 -113.8558 250° West 455 524 21,400 -3,360 Descending Los Angeles Center
Sun 06:08:43 PM 36.5283 -114.0331 249° West 458 527 18,400 -2,541 Descending Los Angeles Center
Sun 06:09:31 PM 36.4953 -114.1400 249° West 445 512 16,700 -2,032 Descending Los Angeles Center
Sun 06:09:45 PM 36.4889 -114.1658 253° West 436 502 16,300 -2,222 Descending Los Angeles Center
Sun 06:10:25 PM 36.4606 -114.2644 250° West 414 476 14,700 -2,032 Descending Los Angeles Center
Sun 06:10:47 PM 36.4494 -114.2944 245° Southwest 408 470 14,200 -2,149 Descending Los Angeles Center
Sun 06:11:32 PM 36.4136 -114.4036 248° West 373 429 12,300 -2,032 Descending Los Angeles Center
Sun 06:11:49 PM 36.4094 -114.4150 246° West 387 445 12,100 -590 Descending Los Angeles Center
Sun 06:12:33 PM 36.3611 -114.5072 237° Southwest 340 391 11,700 -581 Descending Los Angeles Center
Sun 06:12:51 PM 36.3558 -114.5156 232° Southwest 355 409 11,500 -1,254 Descending Los Angeles Center
Sun 06:13:40 PM 36.3117 -114.6069 239° Southwest 309 356 10,300 -1,355 Descending Los Angeles Center
Sun 06:13:53 PM 36.3003 -114.6258 233° Southwest 321 369 10,100 -1,279 Descending Los Angeles Center
Sun 06:14:41 PM 36.2678 -114.6911 238° Southwest 294 338 9,000 -1,161 Descending Los Angeles Center
Sun 06:14:55 PM 36.2575 -114.7103 236° Southwest 299 344 8,900 -1,700 Descending Los Angeles Center
Sun 06:15:41 PM 36.2211 -114.7842 239° Southwest 290 334 7,300 -1,839 Descending Los Angeles Center
Sun 06:15:57 PM 36.2139 -114.7956 232° Southwest 294 338 7,000 -1,180 Descending Los Angeles Center
Sun 06:16:42 PM 36.1769 -114.8683 238° Southwest 292 336 6,100 -968 Descending Los Angeles Center
Sun 06:16:59 PM 36.1714 -114.8814 242° Southwest 294 338 6,000 -716 Descending Los Angeles Center
Sun 06:17:49 PM 36.1547 -114.9639 256° West 264 304 5,300 -484 Descending Los Angeles Center
Sun 06:18:01 PM 36.1522 -114.9797 259° West 261 300 5,500  Climbing Los Angeles Center
Sun 06:18:38 PM 36.1425 -115.0264 256° West 224 258 5,300 -581 Descending Los Angeles Center
Sun 06:19:03 PM 36.1356 -115.0525 252° West 226 260 4,900 -1,475 Descending Los Angeles Center
Sun 06:19:39 PM 36.1358 -115.0953 270° West 193 222 3,800 -1,548 Descending Los Angeles Center
Sun 06:20:05 PM 36.1397 -115.1222 280° West 192 221 3,300 -1,164 Descending Los Angeles Center
Sun 06:20:46 PM 36.1164 -115.1442 217° Southwest 147 169 2,500 -968 Descending Los Angeles Center
Sun 06:21:07 PM 36.1047 -115.1489 198° South 156 180 2,300 -571 Descending Los Angeles Center
Sun 06:23:00 PM 36.0801 -115.1523 219° Southwest  Level Estimated

Login

Don't have an account? Register now (free) for customized features, flight alerts, and more!